createdAt,value
2023-05-05T00:01:07.376Z,101116.78
2023-05-05T00:03:38.597Z,101105.50
2023-05-05T00:06:07.412Z,101116.28
2023-05-05T00:08:35.794Z,101117.34
2023-05-05T00:11:04.026Z,101116.72
2023-05-05T00:13:32.338Z,101107.97
2023-05-05T00:16:01.218Z,101109.91
2023-05-05T00:18:30.431Z,101114.44
2023-05-05T00:20:58.651Z,101115.56
2023-05-05T00:23:26.904Z,101119.31
2023-05-05T00:25:55.289Z,101118.41
2023-05-05T00:28:23.583Z,101123.09
2023-05-05T00:30:52.092Z,101122.38
2023-05-05T00:33:20.452Z,101129.44
2023-05-05T00:35:49.086Z,101124.84
2023-05-05T00:38:17.618Z,101125.66
2023-05-05T00:40:46.112Z,101127.56
2023-05-05T00:43:14.937Z,101127.81
2023-05-05T00:45:48.526Z,101131.63
2023-05-05T00:48:18.712Z,101135.28
2023-05-05T00:50:47.128Z,101137.09
2023-05-05T00:53:15.459Z,101136.50
2023-05-05T00:55:43.824Z,101145.09
2023-05-05T00:58:14.156Z,101141.84
2023-05-05T01:00:42.738Z,101141.06
2023-05-05T01:03:11.307Z,101142.94
2023-05-05T01:05:58.073Z,101143.81
2023-05-05T01:08:29.369Z,101134.94
2023-05-05T01:11:04.127Z,101141.13
2023-05-05T01:13:44.231Z,101140.91
2023-05-05T01:16:28.130Z,101140.88
2023-05-05T01:19:16.555Z,101137.25
2023-05-05T01:21:54.754Z,101133.59
2023-05-05T01:24:31.427Z,101132.72
2023-05-05T01:27:18.004Z,101136.41
2023-05-05T01:30:07.650Z,101140.00
2023-05-05T01:32:43.757Z,101141.72
2023-05-05T01:35:34.172Z,101148.03
2023-05-05T01:38:09.241Z,101143.81
2023-05-05T01:40:45.206Z,101146.66
2023-05-05T01:43:16.298Z,101147.69
2023-05-05T01:45:47.140Z,101140.50
2023-05-05T01:48:19.730Z,101147.75
2023-05-05T01:50:49.909Z,101142.47
2023-05-05T01:53:19.916Z,101156.81
2023-05-05T01:55:50.569Z,101152.59
2023-05-05T01:58:19.329Z,101148.34
2023-05-05T02:00:48.798Z,101155.47
2023-05-05T02:03:18.415Z,101151.97
2023-05-05T02:05:50.360Z,101165.41
2023-05-05T02:08:19.823Z,101160.97
2023-05-05T02:10:50.376Z,101163.56
2023-05-05T02:13:20.704Z,101166.19
2023-05-05T02:15:51.826Z,101169.75
2023-05-05T02:18:21.370Z,101171.53
2023-05-05T02:20:49.782Z,101169.88
2023-05-05T02:23:18.055Z,101175.22
2023-05-05T02:25:54.340Z,101173.44
2023-05-05T02:28:36.281Z,101177.88
2023-05-05T02:31:08.261Z,101171.63
2023-05-05T02:33:38.420Z,101182.19
2023-05-05T02:36:19.391Z,101189.31
2023-05-05T02:38:50.824Z,101181.34
2023-05-05T02:41:22.296Z,101191.13
2023-05-05T02:43:52.501Z,101184.44
2023-05-05T02:46:20.734Z,101197.94
2023-05-05T02:48:49.293Z,101192.72
2023-05-05T02:51:17.508Z,101205.19
2023-05-05T02:53:45.791Z,101208.72
2023-05-05T02:56:19.748Z,101208.72
2023-05-05T02:58:53.978Z,101219.44
2023-05-05T03:01:40.451Z,101215.91
2023-05-05T03:04:24.845Z,101214.28
2023-05-05T03:06:58.537Z,101212.63
2023-05-05T03:09:32.092Z,101220.03
2023-05-05T03:12:10.456Z,101218.53
2023-05-05T03:14:43.137Z,101223.91
2023-05-05T03:17:13.714Z,101229.47
2023-05-05T03:19:44.238Z,101237.44
2023-05-05T03:22:12.980Z,101232.91
2023-05-05T03:24:42.030Z,101232.84
2023-05-05T03:27:10.264Z,101231.97
2023-05-05T03:29:38.580Z,101241.03
2023-05-05T03:32:07.474Z,101236.66
2023-05-05T03:34:38.210Z,101239.38
2023-05-05T03:37:06.449Z,101241.03
2023-05-05T03:39:34.686Z,101241.88
2023-05-05T03:42:02.897Z,101249.81
2023-05-05T03:44:31.418Z,101250.66
2023-05-05T03:46:59.607Z,101256.84
2023-05-05T03:49:27.853Z,101262.25
2023-05-05T03:51:56.403Z,101261.50
2023-05-05T03:54:24.610Z,101269.50
2023-05-05T03:56:52.786Z,101271.44
2023-05-05T03:59:21.101Z,101275.22
2023-05-05T04:01:50.732Z,101276.22
2023-05-05T04:04:19.089Z,101285.06
2023-05-05T04:06:47.439Z,101289.59
2023-05-05T04:09:15.716Z,101296.75
2023-05-05T04:11:43.933Z,101296.84
2023-05-05T04:14:12.242Z,101299.50
2023-05-05T04:16:40.602Z,101301.28
2023-05-05T04:19:09.301Z,101309.34
2023-05-05T04:21:37.564Z,101303.25
2023-05-05T04:24:06.010Z,101310.47
2023-05-05T04:26:34.295Z,101316.69
2023-05-05T04:29:02.542Z,101313.94
2023-05-05T04:31:31.567Z,101320.03
2023-05-05T04:33:59.807Z,101326.28
2023-05-05T04:36:28.298Z,101325.56
2023-05-05T04:38:56.547Z,101339.72
2023-05-05T04:41:24.843Z,101337.06
2023-05-05T04:43:53.860Z,101334.34
2023-05-05T04:46:22.746Z,101338.75
2023-05-05T04:48:51.046Z,101339.78
2023-05-05T04:51:19.243Z,101335.41
2023-05-05T04:53:47.541Z,101338.06
2023-05-05T04:56:15.888Z,101335.28
2023-05-05T04:58:44.139Z,101350.22
2023-05-05T05:01:12.363Z,101347.53
2023-05-05T05:03:40.638Z,101346.69
2023-05-05T05:06:08.890Z,101352.88
2023-05-05T05:08:37.422Z,101352.09
2023-05-05T05:11:05.649Z,101356.59
2023-05-05T05:13:33.910Z,101368.28
2023-05-05T05:16:03.155Z,101358.59
2023-05-05T05:18:31.398Z,101359.50
2023-05-05T05:20:59.649Z,101361.41
2023-05-05T05:23:27.894Z,101353.50
2023-05-05T05:25:56.716Z,101351.84
2023-05-05T05:28:25.020Z,101352.75
2023-05-05T05:30:53.708Z,101351.91
2023-05-05T05:33:21.995Z,101351.09
2023-05-05T05:35:50.210Z,101359.97
2023-05-05T05:38:18.775Z,101356.31
2023-05-05T05:40:47.278Z,101357.22
2023-05-05T05:43:15.543Z,101356.41
2023-05-05T05:45:44.024Z,101351.28
2023-05-05T05:48:12.353Z,101358.38
2023-05-05T05:50:40.641Z,101360.22
2023-05-05T05:53:08.850Z,101360.28
2023-05-05T05:55:37.079Z,101353.44
2023-05-05T05:58:05.282Z,101358.84
2023-05-05T06:00:33.516Z,101357.19
2023-05-05T06:03:01.918Z,101358.09
2023-05-05T06:05:30.296Z,101364.34
2023-05-05T06:07:58.553Z,101358.97
2023-05-05T06:10:28.381Z,101358.09
2023-05-05T06:12:56.914Z,101356.25
2023-05-05T06:15:26.421Z,101358.00
2023-05-05T06:17:54.828Z,101365.97
2023-05-05T06:20:23.889Z,101367.75
2023-05-05T06:22:52.079Z,101360.59
2023-05-05T06:25:20.271Z,101369.47
2023-05-05T06:27:48.807Z,101361.50
2023-05-05T06:30:17.177Z,101365.03
2023-05-05T06:32:45.422Z,101359.72
2023-05-05T06:35:14.129Z,101358.78
2023-05-05T06:37:42.347Z,101357.94
2023-05-05T06:40:11.377Z,101357.94
2023-05-05T06:42:39.619Z,101348.22
2023-05-05T06:45:08.415Z,101351.81
2023-05-05T06:47:37.257Z,101347.38
2023-05-05T06:50:06.000Z,101344.81
2023-05-05T06:52:34.493Z,101343.16
2023-05-05T06:55:02.845Z,101346.78
2023-05-05T06:57:31.096Z,101339.00
2023-05-05T06:59:59.382Z,101345.28
2023-05-05T07:02:27.585Z,101349.81
2023-05-05T07:04:56.280Z,101350.75
2023-05-05T07:07:24.612Z,101348.16
2023-05-05T07:09:53.037Z,101350.91
2023-05-05T07:12:21.261Z,101350.97
2023-05-05T07:14:49.776Z,101345.75
2023-05-05T07:17:18.015Z,101358.28
2023-05-05T07:19:46.325Z,101353.19
2023-05-05T07:22:14.726Z,101355.03
2023-05-05T07:24:42.970Z,101355.13
2023-05-05T07:27:11.512Z,101358.72
2023-05-05T07:29:39.704Z,101372.94
2023-05-05T07:32:09.781Z,101364.16
2023-05-05T07:34:38.876Z,101362.53
2023-05-05T07:37:07.721Z,101362.59
2023-05-05T07:39:35.890Z,101365.34
2023-05-05T07:42:04.084Z,101362.81
2023-05-05T07:44:32.589Z,101371.84
2023-05-05T07:47:00.894Z,101363.16
2023-05-05T07:49:29.137Z,101369.41
2023-05-05T07:51:57.419Z,101369.31
2023-05-05T07:54:25.612Z,101371.97
2023-05-05T07:56:53.845Z,101362.22
2023-05-05T07:59:22.487Z,101369.25
2023-05-05T08:01:51.131Z,101374.63
2023-05-05T08:04:20.318Z,101372.97
2023-05-05T08:06:48.841Z,101369.59
2023-05-05T08:09:17.116Z,101371.56
2023-05-05T08:11:45.297Z,101368.94
2023-05-05T08:14:13.532Z,101372.50
2023-05-05T08:16:41.763Z,101379.59
2023-05-05T08:19:14.847Z,101379.69
2023-05-05T08:21:46.137Z,101386.03
2023-05-05T08:24:14.624Z,101380.00
2023-05-05T08:26:42.846Z,101373.91
2023-05-05T08:29:11.044Z,101381.03
2023-05-05T08:31:39.293Z,101379.25
2023-05-05T08:34:08.085Z,101381.94
2023-05-05T08:36:36.340Z,101381.03
2023-05-05T08:39:04.620Z,101373.13
2023-05-05T08:41:34.089Z,101380.22
2023-05-05T08:44:03.017Z,101382.06
2023-05-05T08:46:32.580Z,101383.91
2023-05-05T08:49:02.403Z,101385.78
2023-05-05T08:51:38.513Z,101380.53
2023-05-05T08:54:08.066Z,101381.44
2023-05-05T08:56:44.530Z,101379.69
2023-05-05T08:59:14.488Z,101379.72
2023-05-05T09:01:43.815Z,101377.03
2023-05-05T09:04:12.407Z,101383.25
2023-05-05T09:06:40.906Z,101385.88
2023-05-05T09:09:10.381Z,101392.06
2023-05-05T09:11:40.171Z,101388.53
2023-05-05T09:14:08.394Z,101388.50
2023-05-05T09:16:36.642Z,101394.66
2023-05-05T09:19:07.806Z,101394.63
2023-05-05T09:21:35.989Z,101401.59
2023-05-05T09:24:12.450Z,101398.00
2023-05-05T09:26:45.933Z,101397.94
2023-05-05T09:29:21.525Z,101396.91
2023-05-05T09:32:09.221Z,101397.69
2023-05-05T09:34:37.553Z,101403.81
2023-05-05T09:37:06.781Z,101402.88
2023-05-05T09:39:35.046Z,101402.78
2023-05-05T09:42:04.025Z,101403.66
2023-05-05T09:44:36.805Z,101400.00
2023-05-05T09:47:09.548Z,101401.69
2023-05-05T09:49:43.317Z,101394.59
2023-05-05T09:52:16.449Z,101395.44
2023-05-05T09:54:45.571Z,101397.16
2023-05-05T09:57:34.978Z,101399.84
2023-05-05T10:00:05.223Z,101403.38
2023-05-05T10:02:40.141Z,101395.41
2023-05-05T10:05:13.606Z,101400.69
2023-05-05T10:07:44.185Z,101404.22
2023-05-05T10:10:14.868Z,101404.19
2023-05-05T10:12:43.550Z,101394.44
2023-05-05T10:15:13.177Z,101408.63
2023-05-05T10:20:21.952Z,101412.13
2023-05-05T10:22:57.315Z,101410.31
2023-05-05T10:25:36.385Z,101419.06
2023-05-05T10:28:07.987Z,101414.66
2023-05-05T10:30:44.104Z,101413.78
2023-05-05T10:35:58.177Z,101416.44
2023-05-05T10:38:29.827Z,101418.22
2023-05-05T10:41:00.386Z,101415.56
2023-05-05T10:43:30.411Z,101414.66
2023-05-05T10:45:59.259Z,101412.91
2023-05-05T10:48:39.057Z,101422.59
2023-05-05T10:51:27.435Z,101412.91
2023-05-05T10:54:22.088Z,101422.59
2023-05-05T10:56:51.001Z,101424.38
2023-05-05T10:59:40.475Z,101421.69
2023-05-05T11:02:27.586Z,101428.63
2023-05-05T11:05:10.104Z,101430.38
2023-05-05T11:07:39.163Z,101432.19
2023-05-05T11:10:11.695Z,101431.28
2023-05-05T11:13:03.278Z,101435.69
2023-05-05T11:15:31.506Z,101433.06
2023-05-05T11:18:07.088Z,101433.97
2023-05-05T11:20:44.164Z,101438.38
2023-05-05T11:23:13.461Z,101438.38
2023-05-05T11:25:46.221Z,101435.63
2023-05-05T11:28:15.604Z,101432.94
2023-05-05T11:31:01.778Z,101437.38
2023-05-05T11:33:38.512Z,101432.91
2023-05-05T11:36:08.685Z,101437.28
2023-05-05T11:38:54.474Z,101428.41
2023-05-05T11:41:36.905Z,101431.03
2023-05-05T11:44:13.275Z,101438.06
2023-05-05T11:46:54.305Z,101436.28
2023-05-05T11:49:28.681Z,101435.41
2023-05-05T11:52:20.583Z,101425.66
2023-05-05T11:54:49.932Z,101435.41
2023-05-05T11:57:21.932Z,101424.78
2023-05-05T12:00:06.564Z,101421.22
2023-05-05T12:02:35.964Z,101422.97
2023-05-05T12:05:04.952Z,101415.84
2023-05-05T12:07:34.624Z,101419.41
2023-05-05T12:10:02.935Z,101417.63
2023-05-05T12:12:40.724Z,101414.09
2023-05-05T12:15:10.696Z,101412.31
2023-05-05T12:17:45.656Z,101414.06
2023-05-05T12:20:14.374Z,101410.50
2023-05-05T12:22:43.116Z,101409.56
2023-05-05T12:25:11.768Z,101414.88
2023-05-05T12:27:40.178Z,101412.13
2023-05-05T12:30:14.614Z,101413.00
2023-05-05T12:32:43.330Z,101420.06
2023-05-05T12:35:12.670Z,101412.13
2023-05-05T12:37:41.530Z,101421.88
2023-05-05T12:40:45.296Z,101414.00
2023-05-05T12:43:34.192Z,101422.84
2023-05-05T12:46:11.436Z,101417.53
2023-05-05T12:48:42.346Z,101419.34
2023-05-05T12:51:26.448Z,101423.81
2023-05-05T12:54:06.029Z,101422.94
2023-05-05T12:56:38.751Z,101423.84
2023-05-05T12:59:08.902Z,101422.94
2023-05-05T13:01:38.715Z,101429.19
2023-05-05T13:04:14.061Z,101435.34
2023-05-05T13:06:44.865Z,101438.06
2023-05-05T13:09:37.166Z,101441.53
2023-05-05T13:12:05.887Z,101443.28
2023-05-05T13:14:34.453Z,101444.13
2023-05-05T13:17:02.789Z,101452.00
2023-05-05T13:19:31.740Z,101454.59
2023-05-05T13:22:00.305Z,101447.53
2023-05-05T13:24:38.141Z,101465.22
2023-05-05T13:27:15.354Z,101463.44
2023-05-05T13:29:44.650Z,101476.69
2023-05-05T13:32:13.027Z,101474.91
2023-05-05T13:34:41.322Z,101476.66
2023-05-05T13:37:09.610Z,101477.50
2023-05-05T13:39:37.839Z,101477.47
2023-05-05T13:42:06.178Z,101482.75
2023-05-05T13:44:34.429Z,101487.97
2023-05-05T13:47:02.747Z,101482.59
2023-05-05T13:49:30.967Z,101494.00
2023-05-05T13:51:59.413Z,101485.13
2023-05-05T13:54:27.606Z,101487.75
2023-05-05T13:56:55.800Z,101490.34
2023-05-05T13:59:24.144Z,101495.59
2023-05-05T14:01:52.383Z,101495.56
2023-05-05T14:04:20.687Z,101507.91
2023-05-05T14:06:49.167Z,101499.91
2023-05-05T14:09:17.475Z,101506.84
2023-05-05T14:11:45.774Z,101507.72
2023-05-05T14:14:14.080Z,101504.97
2023-05-05T14:16:42.301Z,101512.06
2023-05-05T14:19:10.548Z,101508.53
2023-05-05T14:21:39.077Z,101512.88
2023-05-05T14:24:07.598Z,101517.28
2023-05-05T14:26:35.801Z,101522.53
2023-05-05T14:29:04.116Z,101520.69
2023-05-05T14:31:32.607Z,101526.81
2023-05-05T14:34:00.788Z,101525.84
2023-05-05T14:36:29.083Z,101532.91
2023-05-05T14:38:57.342Z,101531.06
2023-05-05T14:41:25.820Z,101537.22
2023-05-05T14:43:54.099Z,101538.88
2023-05-05T14:46:22.631Z,101545.94
2023-05-05T14:48:50.882Z,101546.69
2023-05-05T14:51:19.203Z,101548.34
2023-05-05T14:53:47.963Z,101549.97
2023-05-05T14:56:16.441Z,101548.06
2023-05-05T14:58:44.948Z,101542.66
2023-05-05T15:01:13.184Z,101551.44
2023-05-05T15:03:41.680Z,101554.03
2023-05-05T15:06:10.232Z,101553.09
2023-05-05T15:08:39.820Z,101557.53
2023-05-05T15:11:08.129Z,101553.88
2023-05-05T15:13:36.452Z,101565.31
2023-05-05T15:16:04.828Z,101559.84
2023-05-05T15:18:33.127Z,101568.53
2023-05-05T15:21:01.382Z,101565.75
2023-05-05T15:23:29.710Z,101568.25
2023-05-05T15:25:58.229Z,101577.03
2023-05-05T15:28:26.569Z,101574.22
2023-05-05T15:30:54.972Z,101578.44
2023-05-05T15:33:23.299Z,101572.94
2023-05-05T15:35:51.530Z,101577.16
2023-05-05T15:38:19.750Z,101582.38
2023-05-05T15:40:50.178Z,101575.22
2023-05-05T15:43:18.716Z,101584.91
2023-05-05T15:45:47.332Z,101596.34
2023-05-05T15:48:15.571Z,101586.44
2023-05-05T15:50:43.864Z,101593.44
2023-05-05T15:53:12.278Z,101590.78
2023-05-05T15:55:41.544Z,101601.25
2023-05-05T15:58:09.839Z,101598.16
2023-05-05T16:00:38.065Z,101594.44
2023-05-05T16:03:06.624Z,101592.47
2023-05-05T16:05:34.892Z,101600.13
2023-05-05T16:08:05.610Z,101595.16
2023-05-05T16:10:33.820Z,101597.16
2023-05-05T16:13:02.018Z,101596.75
2023-05-05T16:15:30.295Z,101594.75
2023-05-05T16:17:58.533Z,101588.34
2023-05-05T16:20:26.786Z,101598.94
2023-05-05T16:22:54.981Z,101595.38
2023-05-05T16:25:24.313Z,101598.94
2023-05-05T16:27:54.035Z,101596.13
2023-05-05T16:30:22.354Z,101600.59
2023-05-05T16:32:52.541Z,101604.13
2023-05-05T16:35:20.971Z,101611.31
2023-05-05T16:37:49.764Z,101613.22
2023-05-05T16:40:17.939Z,101606.28
2023-05-05T16:42:46.291Z,101609.78
2023-05-05T16:45:14.716Z,101614.19
2023-05-05T16:47:42.965Z,101616.75
2023-05-05T16:50:11.622Z,101601.97
2023-05-05T16:52:39.901Z,101601.03
2023-05-05T16:55:08.516Z,101602.13
2023-05-05T16:57:36.879Z,101596.69
2023-05-05T17:00:10.123Z,101596.16
2023-05-05T17:02:38.376Z,101607.09
2023-05-05T17:05:07.268Z,101600.28
2023-05-05T17:07:35.670Z,101593.81
2023-05-05T17:10:03.996Z,101596.81
2023-05-05T17:12:32.294Z,101594.41
2023-05-05T17:15:00.729Z,101599.34
2023-05-05T17:17:29.181Z,101603.41
2023-05-05T17:19:57.478Z,101604.34
2023-05-05T17:22:25.684Z,101600.56
2023-05-05T17:24:53.904Z,101593.13
2023-05-05T17:27:22.272Z,101613.22
2023-05-05T17:29:50.511Z,101608.31
2023-05-05T17:32:18.739Z,101608.06
2023-05-05T17:34:47.306Z,101606.25
2023-05-05T17:37:15.535Z,101607.59
2023-05-05T17:39:43.715Z,101616.34
2023-05-05T17:42:12.023Z,101609.31
2023-05-05T17:44:40.286Z,101604.78
2023-05-05T17:47:09.333Z,101603.03
2023-05-05T17:49:37.584Z,101609.63
2023-05-05T17:52:06.028Z,101606.25
2023-05-05T17:54:34.281Z,101603.50
2023-05-05T17:57:03.227Z,101606.16
2023-05-05T17:59:32.964Z,101597.31
2023-05-05T18:02:01.246Z,101602.41
2023-05-05T18:04:29.446Z,101603.47
2023-05-05T18:06:58.415Z,101608.09
2023-05-05T18:09:27.528Z,101609.31
2023-05-05T18:11:56.390Z,101607.19
2023-05-05T18:14:25.506Z,101617.06
2023-05-05T18:16:54.132Z,101613.53
2023-05-05T18:19:24.410Z,101611.66
2023-05-05T18:21:55.280Z,101607.22
2023-05-05T18:24:23.545Z,101607.56
2023-05-05T18:26:53.243Z,101610.81
2023-05-05T18:29:22.690Z,101609.06
2023-05-05T18:31:53.751Z,101605.75
2023-05-05T18:34:22.374Z,101603.69
2023-05-05T18:36:54.956Z,101606.56
2023-05-05T18:39:23.224Z,101604.88
2023-05-05T18:41:51.693Z,101602.81
2023-05-05T18:44:20.982Z,101599.19
2023-05-05T18:46:49.749Z,101593.03
2023-05-05T18:49:18.141Z,101591.41
2023-05-05T18:51:46.561Z,101595.75
2023-05-05T18:54:14.786Z,101589.09
2023-05-05T18:56:43.435Z,101588.69
2023-05-05T18:59:11.665Z,101588.00
2023-05-05T19:01:39.976Z,101581.56
2023-05-05T19:04:18.822Z,101577.88
2023-05-05T19:06:55.300Z,101584.88
2023-05-05T19:09:23.494Z,101588.38
2023-05-05T19:11:51.824Z,101585.88
2023-05-05T19:14:20.043Z,101588.66
2023-05-05T19:16:48.836Z,101587.94
2023-05-05T19:19:17.074Z,101586.53
2023-05-05T19:21:45.377Z,101588.16
2023-05-05T19:24:13.666Z,101593.44
2023-05-05T19:26:41.921Z,101601.88
2023-05-05T19:29:10.140Z,101587.88
2023-05-05T19:31:38.387Z,101588.25
2023-05-05T19:34:07.076Z,101589.56
2023-05-05T19:36:35.693Z,101584.19
2023-05-05T19:39:05.652Z,101584.97
2023-05-05T19:41:35.981Z,101592.72
2023-05-05T19:44:04.220Z,101585.09
2023-05-05T19:46:32.603Z,101580.81
2023-05-05T19:49:00.858Z,101581.75
2023-05-05T19:51:29.242Z,101585.59
2023-05-05T19:53:57.509Z,101583.78
2023-05-05T19:56:25.839Z,101582.75
2023-05-05T19:58:59.675Z,101576.69
2023-05-05T20:01:29.188Z,101575.56
2023-05-05T20:03:58.126Z,101574.66
2023-05-05T20:06:26.505Z,101577.91
2023-05-05T20:08:56.003Z,101576.34
2023-05-05T20:11:24.497Z,101578.25
2023-05-05T20:13:53.825Z,101580.44
2023-05-05T20:16:22.725Z,101579.69
2023-05-05T20:18:51.847Z,101576.44
2023-05-05T20:21:20.617Z,101575.03
2023-05-05T20:23:49.430Z,101567.47
2023-05-05T20:26:17.941Z,101571.72
2023-05-05T20:28:46.686Z,101572.66
2023-05-05T20:31:15.955Z,101577.03
2023-05-05T20:33:44.282Z,101568.16
2023-05-05T20:36:12.726Z,101572.13
2023-05-05T20:38:41.078Z,101570.09
2023-05-05T20:41:09.286Z,101568.88
2023-05-05T20:43:37.986Z,101571.00
2023-05-05T20:46:06.239Z,101566.66
2023-05-05T20:48:34.421Z,101571.44
2023-05-05T20:51:05.809Z,101580.56
2023-05-05T20:53:34.303Z,101578.03
2023-05-05T20:56:02.745Z,101580.19
2023-05-05T20:58:31.423Z,101579.63
2023-05-05T21:00:59.654Z,101578.16
2023-05-05T21:03:27.942Z,101579.22
2023-05-05T21:05:56.457Z,101575.38
2023-05-05T21:08:24.687Z,101574.19
2023-05-05T21:10:52.876Z,101573.13
2023-05-05T21:13:21.194Z,101570.25
2023-05-05T21:15:51.275Z,101567.16
2023-05-05T21:18:19.521Z,101575.50
2023-05-05T21:20:48.105Z,101571.84
2023-05-05T21:23:16.300Z,101565.16
2023-05-05T21:25:44.529Z,101565.72
2023-05-05T21:28:12.770Z,101562.97
2023-05-05T21:30:41.067Z,101566.44
2023-05-05T21:33:09.616Z,101568.88
2023-05-05T21:35:37.942Z,101560.75
2023-05-05T21:38:06.373Z,101565.47
2023-05-05T21:40:34.629Z,101562.97
2023-05-05T21:43:02.834Z,101563.75
2023-05-05T21:45:31.152Z,101561.06
2023-05-05T21:47:59.484Z,101562.16
2023-05-05T21:50:28.912Z,101566.16
2023-05-05T21:52:57.805Z,101572.00
2023-05-05T21:55:26.241Z,101567.16
2023-05-05T21:57:54.465Z,101564.00
2023-05-05T22:00:22.784Z,101569.72
2023-05-05T22:02:51.145Z,101570.41
2023-05-05T22:05:19.420Z,101573.13
2023-05-05T22:07:47.830Z,101574.03
2023-05-05T22:10:16.188Z,101573.00
2023-05-05T22:12:44.502Z,101571.50
2023-05-05T22:15:12.863Z,101569.19
2023-05-05T22:17:41.806Z,101566.19
2023-05-05T22:20:10.634Z,101572.72
2023-05-05T22:22:39.021Z,101573.47
2023-05-05T22:25:08.156Z,101569.41
2023-05-05T22:27:36.640Z,101563.97
2023-05-05T22:30:05.299Z,101568.94
2023-05-05T22:32:33.852Z,101571.56
2023-05-05T22:35:02.267Z,101568.41
2023-05-05T22:37:30.584Z,101569.03
2023-05-05T22:39:58.890Z,101566.25
2023-05-05T22:42:27.653Z,101566.69
2023-05-05T22:44:55.835Z,101576.53
2023-05-05T22:47:24.149Z,101569.59
2023-05-05T22:49:52.488Z,101570.66
2023-05-05T22:52:20.819Z,101580.44
2023-05-05T22:54:49.419Z,101587.03
2023-05-05T22:57:17.686Z,101580.16
2023-05-05T22:59:45.897Z,101591.97
2023-05-05T23:02:14.444Z,101583.50
2023-05-05T23:04:43.764Z,101580.25
2023-05-05T23:07:15.093Z,101582.81
2023-05-05T23:09:43.313Z,101587.00
2023-05-05T23:12:11.651Z,101582.53
2023-05-05T23:14:40.190Z,101588.72
2023-05-05T23:17:08.501Z,101579.59
2023-05-05T23:19:37.412Z,101579.97
2023-05-05T23:22:05.946Z,101571.47
2023-05-05T23:24:34.253Z,101574.53
2023-05-05T23:27:03.101Z,101575.19
2023-05-05T23:29:31.736Z,101570.63
2023-05-05T23:32:00.168Z,101573.09
2023-05-05T23:34:28.504Z,101566.31
2023-05-05T23:36:56.926Z,101571.19
2023-05-05T23:39:25.221Z,101568.16
2023-05-05T23:41:53.588Z,101562.41
2023-05-05T23:44:21.945Z,101565.09
2023-05-05T23:46:50.180Z,101558.88
2023-05-05T23:49:18.482Z,101561.72
2023-05-05T23:51:47.552Z,101558.66
2023-05-05T23:54:16.254Z,101557.56
2023-05-05T23:56:44.589Z,101563.50
2023-05-05T23:59:12.823Z,101558.69
